»·PEaware :: WAT380 KHND-KRNO

WAT380 :: KHND-KRNO

FLIGHT INFORMATION

Flight Status: Arrived
Operator:
Walker Air Transport
More flights by this operator :: More flights under this callsign
Pilot: Spencer M. (27733)
Aircraft: ECLIPSE 500
(EA50)
More flights by this aircraft type
Origin: KHND Henderson
United States
Destination: KRNO Reno/Tahoe Intl
United States
More flights between these airports :: More routes between these airports
Route: PALLY6 OAL V105 FMG
File this flight plan on PilotEdge
Remarks:
Altitude:
(Current/Filed)
22,000ft
Speed:
(Current/Filed)
300kts
Departed: 14-Oct-20 07:25 PM
Arrived: 14-Oct-20 08:53 PM
Distance/Time
Traveled:
305nm/1:28
Distance/Time
To Go:
Arrived

Flight Plot

Page will automatically refresh every two minutes.

Flight plan parsing failed; only flown route is shown


Map Options




Map Legend


Flown Route
Filed Route
Departure Airport
Arrival Airport
Navaid (VOR, NDB)
Fix

Horizontal Profiles

Position Reports

Time Latitude Longitude Heading Altitude Ground
Speed
14-Oct-20 19:08 35.978133 -115.137383 0 2495ft 0kts
14-Oct-20 19:09 35.978133 -115.137383 0 2495ft 0kts
14-Oct-20 19:10 35.978133 -115.137383 0 2495ft 0kts
14-Oct-20 19:11 35.978133 -115.137383 0 2495ft 0kts
14-Oct-20 19:12 35.978133 -115.137383 0 2495ft 0kts
14-Oct-20 19:13 35.978133 -115.137383 0 2495ft 0kts
14-Oct-20 19:14 35.978133 -115.137383 0 2495ft 0kts
14-Oct-20 19:15 35.978133 -115.137383 0 2495ft 0kts
14-Oct-20 19:16 35.978005 -115.136863 180 2495ft 8kts
14-Oct-20 19:17 35.975308 -115.136417 180 2495ft 16kts
14-Oct-20 19:18 35.969954 -115.136476 180 2495ft 20kts
14-Oct-20 19:19 35.964503 -115.136537 181 2495ft 15kts
14-Oct-20 19:20 35.963117 -115.136323 106 2495ft 0kts
14-Oct-20 19:21 35.963117 -115.136323 106 2495ft 0kts
14-Oct-20 19:22 35.963117 -115.136323 106 2495ft 0kts
14-Oct-20 19:23 35.963102 -115.135874 80 2495ft 9kts
14-Oct-20 19:24 35.982722 -115.135372 1 2649ft 139kts
14-Oct-20 19:25 35.995436 -115.100499 86 4591ft 132kts
14-Oct-20 19:26 36.001058 -115.054639 74 6497ft 141kts
14-Oct-20 19:27 36.008455 -115.005361 113 8307ft 163kts
14-Oct-20 19:28 35.965614 -114.981576 159 10130ft 177kts
14-Oct-20 19:29 35.919070 -114.961936 159 11909ft 178kts
14-Oct-20 19:30 35.877720 -114.985626 223 13461ft 178kts
14-Oct-20 19:31 35.838641 -115.024986 222 14961ft 185kts
14-Oct-20 19:32 35.798336 -115.065311 222 16456ft 188kts
14-Oct-20 19:33 35.761051 -115.108681 245 17914ft 182kts
14-Oct-20 19:34 35.736997 -115.162640 245 19302ft 177kts
14-Oct-20 19:35 35.714100 -115.213781 244 20677ft 163kts
14-Oct-20 19:36 35.694135 -115.258222 245 21907ft 137kts
14-Oct-20 19:37 35.694666 -115.306928 299 22004ft 184kts
14-Oct-20 19:38 35.723075 -115.372209 299 21995ft 245kts
14-Oct-20 19:39 35.758556 -115.452646 299 21992ft 287kts
14-Oct-20 19:40 35.798672 -115.543402 298 21990ft 314kts
14-Oct-20 19:41 35.831966 -115.645955 293 21990ft 330kts
14-Oct-20 19:42 35.866452 -115.752652 292 21989ft 339kts
14-Oct-20 19:43 35.901543 -115.861624 292 21992ft 344kts
14-Oct-20 19:44 35.936959 -115.972009 292 21998ft 347kts
14-Oct-20 19:45 35.985901 -116.071611 317 21998ft 345kts
14-Oct-20 19:46 36.055477 -116.151967 317 21998ft 341kts
14-Oct-20 19:47 36.124364 -116.231981 317 21999ft 339kts
14-Oct-20 19:48 36.192851 -116.311771 317 22000ft 338kts
14-Oct-20 19:49 36.261071 -116.391461 317 22000ft 338kts
14-Oct-20 19:50 36.329098 -116.471123 317 21999ft 337kts
14-Oct-20 19:51 36.397175 -116.551050 317 21999ft 337kts
14-Oct-20 19:52 36.465331 -116.631111 317 21999ft 337kts
14-Oct-20 19:53 36.533401 -116.710927 316 21996ft 337kts
14-Oct-20 19:54 36.607632 -116.781150 328 21997ft 337kts
14-Oct-20 19:55 36.687591 -116.841754 328 21999ft 337kts
14-Oct-20 19:56 36.767343 -116.902427 328 21998ft 337kts
14-Oct-20 19:57 36.847319 -116.963434 328 22042ft 336kts
14-Oct-20 19:58 36.926712 -117.024148 328 22148ft 335kts
14-Oct-20 19:59 37.005882 -117.084827 328 22209ft 335kts
14-Oct-20 20:00 37.085087 -117.145673 327 22206ft 334kts
14-Oct-20 20:01 37.164006 -117.206496 327 22210ft 331kts
14-Oct-20 20:02 37.242957 -117.267499 327 21972ft 334kts
14-Oct-20 20:03 37.322637 -117.326007 331 21972ft 331kts
14-Oct-20 20:04 37.403839 -117.378600 331 22012ft 328kts
14-Oct-20 20:05 37.484687 -117.431017 331 21997ft 327kts
14-Oct-20 20:06 37.565391 -117.483488 331 22003ft 326kts
14-Oct-20 20:07 37.645546 -117.535730 331 22015ft 325kts
14-Oct-20 20:08 37.725870 -117.588210 331 22015ft 325kts
14-Oct-20 20:09 37.806136 -117.640786 331 22002ft 325kts
14-Oct-20 20:10 37.886409 -117.693491 331 21984ft 326kts
14-Oct-20 20:11 37.966517 -117.746217 331 22003ft 325kts
14-Oct-20 20:12 38.038851 -117.812962 316 22020ft 324kts
14-Oct-20 20:13 38.104260 -117.891495 316 21990ft 325kts
14-Oct-20 20:14 38.169950 -117.970507 316 21992ft 325kts
14-Oct-20 20:15 38.235416 -118.049445 316 21991ft 325kts
14-Oct-20 20:16 38.301019 -118.128755 316 21991ft 325kts
14-Oct-20 20:17 38.366497 -118.208121 316 21990ft 325kts
14-Oct-20 20:18 38.431456 -118.287066 316 21704ft 314kts
14-Oct-20 20:19 38.492927 -118.361965 316 20851ft 304kts
14-Oct-20 20:20 38.555027 -118.437814 316 19945ft 314kts
14-Oct-20 20:22 38.618569 -118.515624 316 19037ft 320kts
14-Oct-20 20:23 38.683075 -118.594819 316 18122ft 322kts
14-Oct-20 20:24 38.747780 -118.674474 316 17209ft 323kts
14-Oct-20 20:25 38.812448 -118.754282 316 16306ft 323kts
14-Oct-20 20:26 38.876736 -118.833845 316 15980ft 321kts
14-Oct-20 20:27 38.940966 -118.913546 316 15992ft 324kts
14-Oct-20 20:28 39.005856 -118.994310 317 15975ft 325kts
14-Oct-20 20:29 39.070333 -119.074740 317 16009ft 322kts
14-Oct-20 20:30 39.134475 -119.154926 317 16030ft 321kts
14-Oct-20 20:31 39.198648 -119.235401 317 16000ft 322kts
14-Oct-20 20:32 39.262525 -119.315726 317 15966ft 323kts
14-Oct-20 20:33 39.321816 -119.390525 318 15052ft 278kts
14-Oct-20 20:34 39.376102 -119.459106 318 14151ft 274kts
14-Oct-20 20:35 39.430098 -119.527516 318 13146ft 260kts
14-Oct-20 20:36 39.479602 -119.590366 318 12138ft 243kts
14-Oct-20 20:37 39.527618 -119.650119 329 11123ft 236kts
14-Oct-20 20:38 39.590141 -119.644363 7 10125ft 224kts
14-Oct-20 20:39 39.646728 -119.632702 7 10013ft 189kts
14-Oct-20 20:40 39.697578 -119.622379 4 10020ft 184kts
14-Oct-20 20:40 39.739943 -119.627800 353 10027ft 184kts
14-Oct-20 20:41 39.790837 -119.635198 353 10036ft 184kts
14-Oct-20 20:42 39.815604 -119.680475 273 9066ft 186kts
14-Oct-20 20:43 39.815712 -119.743266 273 8642ft 163kts
14-Oct-20 20:44 39.779191 -119.766879 178 7926ft 177kts
14-Oct-20 20:45 39.733283 -119.766309 179 7844ft 159kts
14-Oct-20 20:46 39.688689 -119.766311 180 7593ft 165kts
14-Oct-20 20:47 39.641766 -119.766409 180 6786ft 171kts
14-Oct-20 20:48 39.600041 -119.766084 178 6129ft 128kts
14-Oct-20 20:49 39.565939 -119.766474 180 5483ft 125kts
14-Oct-20 20:50 39.531877 -119.766565 180 4825ft 117kts
14-Oct-20 20:51 39.502257 -119.766764 180 4418ft 77kts
14-Oct-20 20:52 39.497359 -119.765910 90 4418ft 5kts
14-Oct-20 20:53 39.499050 -119.763940 82 4418ft 6kts

Navigation Log

Ident Type
Flight plan parsing failed, navigation log unavailable